Time;durP1;ratioP1;P1;durP2;ratioP2;P2;SDS_P1;SDS_P2;PMS_P1;PMS_P2;Temp;Humidity;BMP_temperature;BMP_pressure;BME280_temperature;BME280_humidity;BME280_pressure;Samples;Min_cycle;Max_cycle;Signal;HPM_P1;HPM_P2
2022/03/04 00:00:35;;;;;;;53.17;27.70;;;;;;;;;;5015495;28;20654;-50
2022/03/04 00:03:09;;;;;;;45.67;27.10;;;;;;;;;;5015752;28;20284;-49
2022/03/04 00:05:38;;;;;;;50.00;26.20;;;;;;;;;;5016373;28;20265;-51
2022/03/04 00:08:06;;;;;;;54.43;27.90;;;;;;;;;;5015627;28;20213;-52
2022/03/04 00:10:34;;;;;;;53.13;27.17;;;;;;;;;;5015918;28;20201;-53
2022/03/04 00:13:01;;;;;;;48.10;25.80;;;;;;;;;;5015506;28;20237;-54
2022/03/04 00:15:28;;;;;;;50.27;27.47;;;;;;;;;;5014804;28;20205;-53
2022/03/04 00:17:56;;;;;;;48.27;26.60;;;;;;;;;;5015511;28;20211;-52
2022/03/04 00:20:23;;;;;;;52.53;27.37;;;;;;;;;;5015251;28;20201;-53
2022/03/04 00:22:50;;;;;;;49.47;27.53;;;;;;;;;;5015524;28;20643;-50
2022/03/04 00:25:19;;;;;;;47.60;25.80;;;;;;;;;;5015054;28;20217;-51
2022/03/04 00:27:47;;;;;;;51.40;26.83;;;;;;;;;;5015285;28;20263;-51
2022/03/04 00:30:14;;;;;;;49.10;28.10;;;;;;;;;;5014435;28;20224;-50
2022/03/04 00:32:41;;;;;;;51.83;27.83;;;;;;;;;;5015002;28;20252;-54
2022/03/04 00:35:09;;;;;;;50.07;27.83;;;;;;;;;;5015248;28;20232;-54
2022/03/04 00:37:36;;;;;;;48.03;26.23;;;;;;;;;;5015092;28;20206;-53
2022/03/04 00:40:05;;;;;;;48.87;26.23;;;;;;;;;;5015166;28;20205;-52
2022/03/04 00:42:32;;;;;;;55.53;28.03;;;;;;;;;;5015024;28;20217;-54
2022/03/04 00:44:59;;;;;;;49.73;27.00;;;;;;;;;;5015512;28;20229;-51
2022/03/04 00:47:26;;;;;;;52.70;28.67;;;;;;;;;;5014963;28;20287;-53
2022/03/04 00:49:54;;;;;;;52.87;27.37;;;;;;;;;;5015049;28;20232;-53
2022/03/04 00:52:21;;;;;;;50.13;27.87;;;;;;;;;;5014927;28;20693;-53
2022/03/04 00:54:48;;;;;;;49.97;27.63;;;;;;;;;;5015063;28;20216;-50
2022/03/04 00:57:15;;;;;;;50.90;25.97;;;;;;;;;;5015024;28;20213;-50
2022/03/04 00:59:42;;;;;;;45.30;24.87;;;;;;;;;;5014681;28;20662;-54
2022/03/04 01:02:10;;;;;;;47.37;26.33;;;;;;;;;;5014942;28;20271;-54
2022/03/04 01:04:37;;;;;;;49.43;27.00;;;;;;;;;;5014824;28;20221;-52
2022/03/04 01:07:04;;;;;;;50.40;27.77;;;;;;;;;;5014788;28;20205;-51
2022/03/04 01:09:32;;;;;;;50.63;27.40;;;;;;;;;;5014657;28;20213;-56
2022/03/04 01:11:59;;;;;;;46.83;25.50;;;;;;;;;;5014598;28;20627;-54
2022/03/04 01:14:26;;;;;;;46.77;25.27;;;;;;;;;;5014847;28;20208;-52
2022/03/04 01:16:53;;;;;;;46.07;25.60;;;;;;;;;;5015200;28;20212;-51
2022/03/04 01:19:20;;;;;;;52.30;28.00;;;;;;;;;;5014702;28;20237;-51
2022/03/04 01:21:47;;;;;;;51.73;26.57;;;;;;;;;;5014801;28;20206;-51
2022/03/04 01:24:15;;;;;;;53.03;27.83;;;;;;;;;;5014629;28;20235;-50
2022/03/04 01:26:42;;;;;;;45.80;25.63;;;;;;;;;;5018138;28;20252;-53
2022/03/04 01:29:09;;;;;;;54.30;26.63;;;;;;;;;;5018923;28;20225;-54
2022/03/04 01:31:36;;;;;;;50.00;27.07;;;;;;;;;;5018689;28;20244;-56
2022/03/04 01:34:04;;;;;;;47.47;25.80;;;;;;;;;;5018208;28;20621;-51
2022/03/04 01:36:33;;;;;;;52.00;24.13;;;;;;;;;;5018422;28;20225;-52
2022/03/04 01:39:01;;;;;;;44.70;24.77;;;;;;;;;;5018244;28;20264;-52
2022/03/04 01:41:28;;;;;;;50.03;26.13;;;;;;;;;;5018396;28;20201;-54
2022/03/04 01:43:55;;;;;;;49.90;26.23;;;;;;;;;;5018025;28;20215;-50
2022/03/04 01:46:30;;;;;;;45.23;24.30;;;;;;;;;;5018162;28;20732;-52
2022/03/04 01:48:57;;;;;;;46.23;24.63;;;;;;;;;;4998442;28;20209;-49
2022/03/04 01:51:24;;;;;;;41.77;23.00;;;;;;;;;;4997420;28;20236;-52
2022/03/04 01:53:52;;;;;;;47.77;23.27;;;;;;;;;;4998725;28;20656;-57
2022/03/04 01:56:19;;;;;;;45.70;22.70;;;;;;;;;;4998497;28;20206;-51
2022/03/04 01:58:46;;;;;;;45.93;24.47;;;;;;;;;;4998658;28;20234;-52
2022/03/04 02:01:13;;;;;;;43.53;23.53;;;;;;;;;;5013742;28;20202;-51
2022/03/04 02:03:40;;;;;;;46.77;24.00;;;;;;;;;;4997904;28;20202;-50
2022/03/04 02:06:08;;;;;;;42.43;22.83;;;;;;;;;;4998236;28;20275;-52
2022/03/04 02:08:35;;;;;;;45.97;24.87;;;;;;;;;;4998207;28;20216;-56
2022/03/04 02:11:02;;;;;;;46.63;24.10;;;;;;;;;;4998300;28;20194;-54
2022/03/04 02:13:31;;;;;;;47.37;24.97;;;;;;;;;;4997881;28;20612;-52
2022/03/04 02:15:58;;;;;;;47.60;23.90;;;;;;;;;;4998108;28;20202;-53
2022/03/04 02:18:25;;;;;;;48.23;24.67;;;;;;;;;;4997986;28;20205;-52
2022/03/04 02:20:53;;;;;;;49.67;24.43;;;;;;;;;;4997849;28;20241;-55
2022/03/04 02:23:20;;;;;;;40.80;23.40;;;;;;;;;;4997980;28;20209;-54
2022/03/04 02:25:50;;;;;;;48.83;24.37;;;;;;;;;;4997978;28;20288;-53
2022/03/04 02:28:19;;;;;;;45.97;24.27;;;;;;;;;;4997920;28;20202;-52
2022/03/04 02:30:47;;;;;;;44.53;25.03;;;;;;;;;;4997491;28;20198;-52
2022/03/04 02:33:14;;;;;;;45.30;23.77;;;;;;;;;;4997523;28;20202;-51
2022/03/04 02:35:42;;;;;;;43.53;23.37;;;;;;;;;;4997724;28;20206;-54
2022/03/04 02:38:09;;;;;;;41.97;23.03;;;;;;;;;;4997158;28;20229;-52
2022/03/04 02:40:37;;;;;;;48.93;25.90;;;;;;;;;;4997510;28;20205;-51
2022/03/04 02:43:04;;;;;;;43.40;21.90;;;;;;;;;;4997456;28;20663;-52
2022/03/04 02:45:32;;;;;;;47.57;23.73;;;;;;;;;;4997441;28;20252;-57
2022/03/04 02:47:59;;;;;;;44.87;24.13;;;;;;;;;;4997738;28;20233;-53
2022/03/04 02:50:26;;;;;;;41.30;22.93;;;;;;;;;;4997789;28;20651;-53
2022/03/04 02:52:54;;;;;;;46.77;23.83;;;;;;;;;;4997426;28;20209;-53
2022/03/04 02:55:21;;;;;;;50.63;24.80;;;;;;;;;;4997407;28;20662;-51
2022/03/04 02:57:48;;;;;;;42.23;24.10;;;;;;;;;;4997365;28;20519;-55
2022/03/04 03:00:16;;;;;;;41.37;24.53;;;;;;;;;;4997037;28;20237;-51
2022/03/04 03:02:44;;;;;;;47.30;24.63;;;;;;;;;;4997826;28;20237;-53
2022/03/04 03:05:12;;;;;;;53.27;25.90;;;;;;;;;;4996985;28;20283;-56
2022/03/04 03:07:40;;;;;;;45.87;24.57;;;;;;;;;;4997476;28;20595;-53
2022/03/04 03:10:09;;;;;;;44.57;23.73;;;;;;;;;;4996892;28;20651;-54
2022/03/04 03:12:40;;;;;;;46.60;24.93;;;;;;;;;;4997029;28;20249;-54
2022/03/04 03:15:08;;;;;;;47.33;23.50;;;;;;;;;;4996884;28;20206;-55
2022/03/04 03:17:36;;;;;;;46.53;25.80;;;;;;;;;;4996799;28;20202;-50
2022/03/04 03:20:05;;;;;;;45.17;24.07;;;;;;;;;;4996896;28;20206;-55
2022/03/04 03:22:32;;;;;;;43.60;23.97;;;;;;;;;;4996906;28;20206;-56
2022/03/04 03:24:59;;;;;;;48.20;21.67;;;;;;;;;;5009662;28;20228;-52
2022/03/04 03:27:26;;;;;;;38.17;22.53;;;;;;;;;;5014480;28;20682;-54
2022/03/04 03:29:53;;;;;;;45.90;24.07;;;;;;;;;;5015331;28;20205;-55
2022/03/04 03:32:20;;;;;;;48.13;24.60;;;;;;;;;;5015978;28;20280;-52
2022/03/04 03:34:47;;;;;;;48.70;25.77;;;;;;;;;;5016351;28;20232;-50
2022/03/04 03:37:15;;;;;;;47.83;24.60;;;;;;;;;;5016275;28;20517;-54
2022/03/04 03:39:42;;;;;;;51.37;23.90;;;;;;;;;;5016128;28;20262;-57
2022/03/04 03:42:10;;;;;;;49.73;24.63;;;;;;;;;;5016166;28;20240;-54
2022/03/04 03:44:37;;;;;;;46.43;21.97;;;;;;;;;;5015886;28;20503;-54
2022/03/04 03:47:04;;;;;;;44.90;24.17;;;;;;;;;;5016008;28;20746;-57
2022/03/04 03:49:31;;;;;;;43.97;22.07;;;;;;;;;;5014873;28;20236;-53
2022/03/04 03:51:58;;;;;;;46.77;24.20;;;;;;;;;;5015630;28;20209;-51
2022/03/04 03:54:25;;;;;;;46.30;23.00;;;;;;;;;;5014769;28;20201;-54
2022/03/04 03:56:52;;;;;;;47.10;24.93;;;;;;;;;;5015637;28;20233;-53
2022/03/04 03:59:20;;;;;;;46.07;22.77;;;;;;;;;;5015923;28;20520;-55
2022/03/04 04:01:47;;;;;;;48.50;24.97;;;;;;;;;;5015833;28;20228;-50
2022/03/04 04:04:15;;;;;;;46.43;24.57;;;;;;;;;;5014558;28;20526;-54
2022/03/04 04:06:42;;;;;;;45.87;24.80;;;;;;;;;;5015550;28;20221;-57
2022/03/04 04:09:10;;;;;;;44.33;22.23;;;;;;;;;;5015676;28;20209;-51
2022/03/04 04:11:39;;;;;;;43.17;23.33;;;;;;;;;;5014787;28;20634;-51
2022/03/04 04:14:08;;;;;;;44.10;23.67;;;;;;;;;;5015599;28;20291;-52
2022/03/04 04:16:36;;;;;;;43.07;22.67;;;;;;;;;;5015283;28;20205;-52
2022/03/04 04:19:04;;;;;;;43.43;23.77;;;;;;;;;;5015090;28;20225;-51
2022/03/04 04:21:34;;;;;;;45.33;23.70;;;;;;;;;;5016174;28;20205;-49
2022/03/04 04:24:01;;;;;;;41.37;23.40;;;;;;;;;;5015389;28;20251;-51
2022/03/04 04:26:30;;;;;;;50.63;26.10;;;;;;;;;;5015729;28;20288;-55
2022/03/04 04:28:57;;;;;;;50.60;25.13;;;;;;;;;;5015446;28;20587;-52
2022/03/04 04:31:25;;;;;;;45.37;23.77;;;;;;;;;;5015293;28;20244;-54
2022/03/04 04:33:52;;;;;;;43.33;24.33;;;;;;;;;;5014989;28;20707;-58
2022/03/04 04:36:19;;;;;;;46.27;23.70;;;;;;;;;;5015061;28;20240;-59
2022/03/04 04:38:46;;;;;;;42.37;23.67;;;;;;;;;;5014886;28;20284;-57
2022/03/04 04:41:14;;;;;;;43.77;23.80;;;;;;;;;;5020929;28;20228;-58
2022/03/04 04:43:41;;;;;;;45.60;24.97;;;;;;;;;;5020271;28;20221;-58
2022/03/04 04:46:08;;;;;;;48.00;24.17;;;;;;;;;;5020963;28;20316;-52
2022/03/04 04:48:35;;;;;;;52.27;25.27;;;;;;;;;;5019034;28;20225;-51
2022/03/04 04:51:03;;;;;;;49.27;26.13;;;;;;;;;;5015917;28;20212;-53
2022/03/04 04:53:38;;;;;;;52.53;27.37;;;;;;;;;;5013701;28;20244;-55
2022/03/04 04:56:05;;;;;;;48.80;26.37;;;;;;;;;;5014588;28;20271;-54
2022/03/04 04:58:32;;;;;;;51.73;25.67;;;;;;;;;;5014476;28;20224;-57
2022/03/04 05:01:00;;;;;;;49.20;25.07;;;;;;;;;;5018153;28;20193;-58
2022/03/04 05:03:27;;;;;;;48.07;27.40;;;;;;;;;;5016311;28;20252;-55
2022/03/04 05:05:56;;;;;;;51.10;26.93;;;;;;;;;;5019545;28;20698;-59
2022/03/04 05:08:27;;;;;;;49.90;25.90;;;;;;;;;;5019878;28;20307;-58
2022/03/04 05:10:57;;;;;;;46.50;25.47;;;;;;;;;;5020175;28;20229;-58
2022/03/04 05:13:24;;;;;;;47.87;24.87;;;;;;;;;;5020410;28;20279;-59
2022/03/04 05:15:52;;;;;;;46.97;25.53;;;;;;;;;;5020260;28;20259;-57
2022/03/04 05:18:19;;;;;;;48.43;25.50;;;;;;;;;;5019798;28;20225;-51
2022/03/04 05:20:46;;;;;;;53.77;25.97;;;;;;;;;;5020442;28;20249;-57
2022/03/04 05:23:58;;;;;;;53.87;25.67;;;;;;;;;;5020292;28;20217;-54
2022/03/04 05:26:00;;;;;;;47.20;26.33;;;;;;;;;;5019265;28;20614;-54
2022/03/04 05:28:27;;;;;;;51.97;25.43;;;;;;;;;;5020083;28;20213;-53
2022/03/04 05:30:55;;;;;;;49.33;25.77;;;;;;;;;;5020527;28;20221;-53
2022/03/04 05:33:22;;;;;;;48.97;24.37;;;;;;;;;;5030453;28;20267;-57
2022/03/04 05:35:49;;;;;;;52.57;26.60;;;;;;;;;;5025778;28;20221;-53
2022/03/04 05:38:16;;;;;;;52.87;26.43;;;;;;;;;;5029354;28;20243;-47
2022/03/04 05:40:44;;;;;;;59.07;27.67;;;;;;;;;;5030534;28;20255;-51
2022/03/04 05:43:11;;;;;;;53.87;26.93;;;;;;;;;;5021343;28;20279;-56
2022/03/04 05:45:38;;;;;;;49.47;26.33;;;;;;;;;;5020041;28;20232;-50
2022/03/04 05:48:06;;;;;;;51.90;27.13;;;;;;;;;;5019567;28;20913;-50
2022/03/04 05:50:33;;;;;;;55.77;25.33;;;;;;;;;;5019789;28;20225;-56
2022/03/04 05:53:00;;;;;;;48.03;26.20;;;;;;;;;;5019282;28;20248;-51
2022/03/04 05:55:28;;;;;;;52.03;25.83;;;;;;;;;;5019943;28;20249;-51
2022/03/04 05:57:55;;;;;;;50.70;26.80;;;;;;;;;;5019963;28;20233;-49
2022/03/04 06:00:21;;;;;;;49.73;25.77;;;;;;;;;;5020259;28;20232;-49
2022/03/04 06:02:49;;;;;;;51.70;26.33;;;;;;;;;;5019639;28;20253;-53
2022/03/04 06:05:16;;;;;;;47.13;26.90;;;;;;;;;;5020188;28;20233;-49
2022/03/04 06:07:43;;;;;;;49.40;26.87;;;;;;;;;;5020294;28;20233;-50
2022/03/04 06:10:11;;;;;;;49.70;26.20;;;;;;;;;;5019972;28;20698;-57
2022/03/04 06:12:38;;;;;;;53.60;26.30;;;;;;;;;;5016956;28;20340;-49
2022/03/04 06:15:06;;;;;;;50.73;26.47;;;;;;;;;;5016650;28;20225;-52
2022/03/04 06:17:33;;;;;;;45.73;25.77;;;;;;;;;;5017492;28;20233;-54
2022/03/04 06:20:00;;;;;;;45.17;24.37;;;;;;;;;;5017650;28;20205;-50
2022/03/04 06:22:27;;;;;;;48.23;25.53;;;;;;;;;;5017343;28;20236;-52
2022/03/04 06:24:54;;;;;;;51.83;25.77;;;;;;;;;;5017602;28;20252;-50
2022/03/04 06:27:22;;;;;;;49.23;26.20;;;;;;;;;;5017522;28;20225;-48
2022/03/04 06:29:49;;;;;;;46.07;24.50;;;;;;;;;;5017414;28;20205;-50
2022/03/04 06:32:16;;;;;;;49.27;26.20;;;;;;;;;;5017150;28;20229;-53
2022/03/04 06:34:43;;;;;;;44.70;23.97;;;;;;;;;;5017108;28;20213;-52
2022/03/04 06:37:12;;;;;;;52.80;25.90;;;;;;;;;;5017109;28;20271;-52
2022/03/04 06:39:40;;;;;;;53.63;24.87;;;;;;;;;;5016957;28;20225;-51
2022/03/04 06:42:07;;;;;;;45.37;24.30;;;;;;;;;;5016959;28;20255;-50
2022/03/04 06:44:34;;;;;;;47.70;24.87;;;;;;;;;;5016976;28;20201;-50
2022/03/04 06:47:01;;;;;;;38.20;21.10;;;;;;;;;;5017119;28;20289;-52
2022/03/04 06:49:28;;;;;;;43.27;22.20;;;;;;;;;;5016858;28;20201;-50
2022/03/04 06:51:55;;;;;;;49.10;26.77;;;;;;;;;;5016854;28;20240;-49
2022/03/04 06:54:23;;;;;;;45.77;22.97;;;;;;;;;;5016788;28;20229;-54
2022/03/04 06:56:50;;;;;;;46.30;23.33;;;;;;;;;;5016907;28;20213;-50
2022/03/04 06:59:17;;;;;;;40.80;19.97;;;;;;;;;;5017014;28;20232;-52
2022/03/04 07:01:45;;;;;;;41.60;21.23;;;;;;;;;;5016549;28;20710;-53
2022/03/04 07:04:12;;;;;;;39.20;20.20;;;;;;;;;;5016869;28;20272;-49
2022/03/04 07:06:40;;;;;;;45.57;21.97;;;;;;;;;;5016808;28;20263;-49
2022/03/04 07:09:07;;;;;;;44.90;23.10;;;;;;;;;;5016723;28;20197;-50
2022/03/04 07:11:34;;;;;;;39.87;21.83;;;;;;;;;;5016433;28;20230;-51
2022/03/04 07:14:01;;;;;;;46.07;21.47;;;;;;;;;;5016341;28;20297;-59
2022/03/04 07:16:28;;;;;;;42.73;22.03;;;;;;;;;;5016766;28;20236;-54
2022/03/04 07:18:56;;;;;;;38.63;21.13;;;;;;;;;;5017113;28;20295;-52
2022/03/04 07:21:23;;;;;;;38.70;21.17;;;;;;;;;;5016710;28;20229;-53
2022/03/04 07:23:55;;;;;;;41.20;20.27;;;;;;;;;;5016394;28;20209;-50
2022/03/04 07:26:22;;;;;;;38.07;19.43;;;;;;;;;;5016224;28;20256;-50
2022/03/04 07:28:50;;;;;;;39.60;21.57;;;;;;;;;;5016399;28;20225;-52
2022/03/04 07:31:18;;;;;;;40.37;20.43;;;;;;;;;;5016017;28;20212;-54
2022/03/04 07:33:45;;;;;;;38.53;20.50;;;;;;;;;;5016005;28;20233;-51
2022/03/04 07:36:12;;;;;;;39.37;18.17;;;;;;;;;;5015083;28;20210;-53
2022/03/04 07:38:40;;;;;;;37.00;20.47;;;;;;;;;;5016099;28;20197;-54
2022/03/04 07:41:07;;;;;;;44.77;20.20;;;;;;;;;;5016075;28;20600;-54
2022/03/04 07:43:34;;;;;;;35.80;19.23;;;;;;;;;;5015869;28;20232;-54
2022/03/04 07:46:01;;;;;;;38.10;20.33;;;;;;;;;;5015802;28;20332;-53
2022/03/04 07:48:28;;;;;;;39.27;19.53;;;;;;;;;;5016294;28;20276;-50
2022/03/04 07:50:57;;;;;;;37.33;19.43;;;;;;;;;;5016053;28;20198;-54
2022/03/04 07:53:24;;;;;;;32.47;17.50;;;;;;;;;;5015786;28;20259;-53
2022/03/04 07:55:52;;;;;;;33.17;16.87;;;;;;;;;;5015607;28;20211;-55
2022/03/04 07:58:19;;;;;;;32.40;17.23;;;;;;;;;;5015628;28;20588;-53
2022/03/04 08:00:46;;;;;;;27.03;14.90;;;;;;;;;;5015764;28;20212;-52
2022/03/04 08:03:33;;;;;;;30.90;15.00;;;;;;;;;;5016119;28;20205;-56
2022/03/04 08:06:00;;;;;;;27.73;13.77;;;;;;;;;;5015562;28;20232;-56
2022/03/04 08:08:27;;;;;;;27.63;14.17;;;;;;;;;;5015561;28;20235;-51
2022/03/04 08:10:56;;;;;;;25.40;14.40;;;;;;;;;;5015386;28;20224;-53
2022/03/04 08:13:23;;;;;;;22.97;12.13;;;;;;;;;;5015639;28;20259;-53
2022/03/04 08:15:51;;;;;;;27.83;13.47;;;;;;;;;;5015361;28;20224;-53
2022/03/04 08:18:18;;;;;;;25.77;12.77;;;;;;;;;;5015453;28;20210;-54
2022/03/04 08:20:45;;;;;;;19.50;7.37;;;;;;;;;;5015050;28;20691;-55
2022/03/04 08:23:12;;;;;;;20.77;10.10;;;;;;;;;;5015635;28;20225;-54
2022/03/04 08:25:40;;;;;;;20.93;10.73;;;;;;;;;;5015058;28;20546;-51
2022/03/04 08:28:07;;;;;;;13.37;7.40;;;;;;;;;;5015143;28;20689;-49
2022/03/04 08:30:34;;;;;;;18.07;10.57;;;;;;;;;;5015143;28;20631;-51
2022/03/04 08:33:02;;;;;;;16.33;8.37;;;;;;;;;;5015041;28;20225;-48
2022/03/04 08:35:29;;;;;;;15.73;6.87;;;;;;;;;;5014397;28;20197;-51
2022/03/04 08:37:56;;;;;;;16.97;6.60;;;;;;;;;;5015249;28;20300;-52
2022/03/04 08:40:23;;;;;;;12.53;6.10;;;;;;;;;;5015192;28;20235;-51
2022/03/04 08:42:50;;;;;;;15.90;7.50;;;;;;;;;;5015068;28;20205;-52
2022/03/04 08:45:17;;;;;;;11.60;6.60;;;;;;;;;;5015028;28;20636;-54
2022/03/04 08:47:46;;;;;;;12.50;6.33;;;;;;;;;;5015602;28;20323;-51
2022/03/04 08:50:14;;;;;;;11.07;5.37;;;;;;;;;;5015166;28;20212;-53
2022/03/04 08:52:42;;;;;;;11.20;5.27;;;;;;;;;;5015075;28;20210;-52
2022/03/04 08:55:14;;;;;;;15.00;7.20;;;;;;;;;;5014865;28;20216;-52
2022/03/04 08:57:45;;;;;;;14.50;7.47;;;;;;;;;;5015093;28;20244;-52
2022/03/04 09:00:15;;;;;;;12.83;6.90;;;;;;;;;;5014797;28;20221;-54
2022/03/04 09:02:43;;;;;;;17.23;7.93;;;;;;;;;;5014910;28;20205;-53
2022/03/04 09:05:10;;;;;;;24.17;10.77;;;;;;;;;;5014657;28;20205;-55
2022/03/04 09:07:37;;;;;;;20.17;9.77;;;;;;;;;;5014640;28;20673;-52
2022/03/04 09:10:05;;;;;;;18.83;9.67;;;;;;;;;;5015133;28;20229;-53
2022/03/04 09:12:33;;;;;;;17.53;10.47;;;;;;;;;;5014579;28;20208;-51
2022/03/04 09:15:00;;;;;;;25.53;13.13;;;;;;;;;;5014812;28;20205;-50
2022/03/04 09:17:27;;;;;;;18.50;8.73;;;;;;;;;;5014822;28;20205;-51
2022/03/04 09:19:54;;;;;;;24.73;10.97;;;;;;;;;;5014857;28;20232;-51
2022/03/04 09:22:24;;;;;;;20.13;12.17;;;;;;;;;;5014824;28;20228;-54
2022/03/04 09:24:51;;;;;;;20.17;9.03;;;;;;;;;;5014649;28;20205;-50
2022/03/04 09:27:19;;;;;;;23.23;12.50;;;;;;;;;;5014375;28;20225;-55
2022/03/04 09:29:46;;;;;;;21.80;10.73;;;;;;;;;;5014496;28;20279;-50
2022/03/04 09:32:13;;;;;;;14.03;8.13;;;;;;;;;;5014453;28;20665;-54
2022/03/04 09:34:41;;;;;;;14.90;6.57;;;;;;;;;;5014522;28;20229;-51
2022/03/04 09:37:08;;;;;;;13.93;7.90;;;;;;;;;;5013785;28;20229;-51
2022/03/04 09:39:35;;;;;;;13.70;7.13;;;;;;;;;;5014568;28;20646;-52
2022/03/04 09:42:02;;;;;;;18.87;8.83;;;;;;;;;;5014401;28;20201;-51
2022/03/04 09:44:30;;;;;;;12.83;7.20;;;;;;;;;;5014357;28;20224;-57
2022/03/04 09:46:59;;;;;;;13.50;7.00;;;;;;;;;;5014952;28;20241;-50
2022/03/04 09:49:31;;;;;;;11.43;6.17;;;;;;;;;;5018740;28;20205;-50
2022/03/04 09:51:58;;;;;;;11.70;6.90;;;;;;;;;;5018375;28;20193;-52
2022/03/04 09:54:29;;;;;;;12.27;6.73;;;;;;;;;;5018123;28;20240;-53
2022/03/04 09:56:57;;;;;;;7.73;4.57;;;;;;;;;;5018177;28;20715;-54
2022/03/04 09:59:25;;;;;;;6.60;3.70;;;;;;;;;;5018558;28;20236;-51
2022/03/04 10:01:52;;;;;;;14.13;4.27;;;;;;;;;;5017886;28;20201;-50
2022/03/04 10:04:25;;;;;;;10.47;4.47;;;;;;;;;;5018007;28;20212;-50
2022/03/04 10:06:52;;;;;;;6.13;3.27;;;;;;;;;;5017637;28;20244;-51
2022/03/04 10:09:40;;;;;;;9.17;5.47;;;;;;;;;;5017794;28;20201;-50
2022/03/04 10:12:08;;;;;;;12.10;5.67;;;;;;;;;;5017691;28;20225;-54
2022/03/04 10:15:07;;;;;;;8.70;4.83;;;;;;;;;;5033326;28;20258;-51
2022/03/04 10:17:36;;;;;;;11.37;4.97;;;;;;;;;;5017498;28;20639;-53
2022/03/04 10:20:09;;;;;;;11.73;5.23;;;;;;;;;;5017902;28;20292;-51
2022/03/04 10:22:42;;;;;;;10.63;5.20;;;;;;;;;;5017701;28;20224;-51
2022/03/04 10:25:21;;;;;;;9.50;3.60;;;;;;;;;;5017713;28;20197;-53
2022/03/04 10:27:49;;;;;;;7.97;3.33;;;;;;;;;;5017491;28;20263;-54
2022/03/04 10:30:16;;;;;;;8.67;4.20;;;;;;;;;;5017479;28;20205;-52
2022/03/04 10:32:44;;;;;;;7.87;3.27;;;;;;;;;;5017467;28;20566;-56
2022/03/04 10:35:14;;;;;;;5.17;2.47;;;;;;;;;;5017906;28;20233;-50
2022/03/04 10:37:52;;;;;;;8.90;4.17;;;;;;;;;;5017124;28;20220;-49
2022/03/04 10:40:27;;;;;;;8.00;4.43;;;;;;;;;;5017392;28;20332;-55
2022/03/04 10:42:59;;;;;;;7.57;4.50;;;;;;;;;;5017342;28;20216;-55
2022/03/04 10:45:29;;;;;;;10.40;4.73;;;;;;;;;;5017675;28;20236;-52
2022/03/04 10:48:04;;;;;;;8.07;3.73;;;;;;;;;;5017553;28;20314;-51
2022/03/04 10:50:48;;;;;;;11.37;5.27;;;;;;;;;;5017097;28;20641;-53
2022/03/04 10:53:16;;;;;;;8.93;5.23;;;;;;;;;;5016866;28;20685;-51
2022/03/04 10:55:58;;;;;;;9.70;4.67;;;;;;;;;;5016724;28;20643;-53
2022/03/04 10:58:34;;;;;;;8.60;4.17;;;;;;;;;;5016703;28;20217;-51
2022/03/04 11:01:18;;;;;;;12.23;5.17;;;;;;;;;;5017090;28;20190;-53
2022/03/04 11:03:45;;;;;;;12.33;5.30;;;;;;;;;;5017098;28;20292;-52
2022/03/04 11:06:14;;;;;;;9.90;5.50;;;;;;;;;;5016550;28;20590;-52
2022/03/04 11:08:42;;;;;;;10.33;5.67;;;;;;;;;;5016630;28;20233;-53
2022/03/04 11:11:10;;;;;;;12.40;6.30;;;;;;;;;;5016690;28;20259;-51
2022/03/04 11:13:38;;;;;;;6.40;3.90;;;;;;;;;;5016709;28;20568;-53
2022/03/04 11:16:06;;;;;;;6.90;3.73;;;;;;;;;;5016393;28;20197;-54
2022/03/04 11:18:35;;;;;;;5.27;2.80;;;;;;;;;;5016587;28;20216;-52
2022/03/04 11:21:04;;;;;;;7.37;2.87;;;;;;;;;;5017006;28;20215;-53
2022/03/04 11:23:37;;;;;;;5.37;3.10;;;;;;;;;;5016232;28;20205;-51
2022/03/04 11:26:19;;;;;;;6.77;2.97;;;;;;;;;;5016279;28;20638;-53
2022/03/04 11:28:49;;;;;;;4.87;2.63;;;;;;;;;;5017038;28;20654;-53
2022/03/04 11:31:20;;;;;;;5.27;2.77;;;;;;;;;;5016347;28;20606;-53
2022/03/04 11:33:52;;;;;;;8.43;2.90;;;;;;;;;;5016785;28;20581;-52
2022/03/04 11:36:22;;;;;;;4.27;2.63;;;;;;;;;;5016070;28;20217;-54
2022/03/04 11:38:49;;;;;;;9.03;3.40;;;;;;;;;;5016157;28;20240;-54
2022/03/04 11:41:18;;;;;;;7.43;4.33;;;;;;;;;;5015942;28;20201;-53
2022/03/04 11:43:57;;;;;;;7.33;3.97;;;;;;;;;;5016329;28;20189;-53
2022/03/04 11:46:27;;;;;;;7.20;3.60;;;;;;;;;;5015763;28;20705;-56
2022/03/04 11:49:21;;;;;;;9.67;3.73;;;;;;;;;;5015847;28;20252;-54
2022/03/04 11:52:07;;;;;;;7.00;4.00;;;;;;;;;;5016065;28;20209;-53
2022/03/04 11:54:37;;;;;;;4.90;3.10;;;;;;;;;;5031401;28;20216;-55
2022/03/04 11:57:39;;;;;;;8.90;4.43;;;;;;;;;;5015640;28;20639;-54
2022/03/04 12:00:22;;;;;;;11.47;5.50;;;;;;;;;;5016127;28;20225;-52
2022/03/04 12:02:54;;;;;;;4.33;3.33;;;;;;;;;;5015884;28;20279;-53
2022/03/04 12:05:31;;;;;;;5.63;3.03;;;;;;;;;;5015576;28;20205;-53
2022/03/04 12:07:59;;;;;;;8.40;4.17;;;;;;;;;;5015454;28;20217;-52
2022/03/04 12:10:32;;;;;;;3.83;2.80;;;;;;;;;;5014927;28;20339;-53
2022/03/04 12:13:18;;;;;;;4.77;2.83;;;;;;;;;;5016224;28;20233;-50
2022/03/04 12:15:50;;;;;;;4.97;2.90;;;;;;;;;;5015728;28;20205;-51
2022/03/04 12:18:20;;;;;;;6.83;2.37;;;;;;;;;;5015620;28;20193;-53
2022/03/04 12:20:48;;;;;;;3.90;2.77;;;;;;;;;;5015236;28;20193;-52
2022/03/04 12:23:16;;;;;;;6.47;2.50;;;;;;;;;;5015460;28;20293;-55
2022/03/04 12:25:54;;;;;;;5.53;2.70;;;;;;;;;;5015869;28;20232;-54
2022/03/04 12:28:23;;;;;;;5.00;2.90;;;;;;;;;;5015646;28;20228;-52
2022/03/04 12:31:00;;;;;;;7.20;3.87;;;;;;;;;;5015142;28;20288;-53
2022/03/04 12:33:33;;;;;;;17.97;7.20;;;;;;;;;;5015195;28;20209;-53
2022/03/04 12:36:02;;;;;;;6.17;3.70;;;;;;;;;;5015132;28;20657;-55
2022/03/04 12:38:37;;;;;;;5.73;3.67;;;;;;;;;;5015000;28;20239;-55
2022/03/04 12:41:04;;;;;;;8.40;3.17;;;;;;;;;;5011349;28;20247;-59
2022/03/04 12:43:32;;;;;;;4.73;2.77;;;;;;;;;;5016028;28;20288;-59
2022/03/04 12:45:59;;;;;;;4.20;2.80;;;;;;;;;;5012626;28;20222;-53
2022/03/04 12:48:26;;;;;;;7.00;2.63;;;;;;;;;;5012148;28;20271;-54
2022/03/04 12:50:57;;;;;;;6.03;2.50;;;;;;;;;;5012239;28;20319;-58
2022/03/04 12:53:28;;;;;;;3.97;2.27;;;;;;;;;;5012760;28;20260;-59
2022/03/04 12:55:56;;;;;;;6.10;3.37;;;;;;;;;;5009675;28;20567;-57
2022/03/04 12:58:46;;;;;;;4.97;2.67;;;;;;;;;;5013119;28;20228;-52
2022/03/04 13:01:15;;;;;;;6.10;2.37;;;;;;;;;;5010382;28;20225;-50
2022/03/04 13:03:45;;;;;;;7.20;2.90;;;;;;;;;;5012566;28;20671;-54
2022/03/04 13:06:12;;;;;;;6.63;2.33;;;;;;;;;;5012651;28;20256;-52
2022/03/04 13:09:12;;;;;;;5.07;2.60;;;;;;;;;;5012463;28;20259;-54
2022/03/04 13:11:43;;;;;;;6.73;3.60;;;;;;;;;;4949829;28;20227;-57
2022/03/04 13:14:11;;;;;;;10.80;3.77;;;;;;;;;;4952482;29;20223;-59
2022/03/04 13:16:39;;;;;;;6.20;3.63;;;;;;;;;;4951760;29;20216;-56
2022/03/04 13:19:12;;;;;;;5.90;3.57;;;;;;;;;;4952335;29;20362;-50
2022/03/04 13:21:57;;;;;;;6.80;3.73;;;;;;;;;;4952607;28;20231;-56
2022/03/04 13:24:24;;;;;;;9.13;3.50;;;;;;;;;;4957124;29;20262;-53
2022/03/04 13:26:51;;;;;;;4.63;2.80;;;;;;;;;;4957069;28;20258;-56
2022/03/04 13:29:19;;;;;;;6.37;3.17;;;;;;;;;;4957513;29;20257;-52
2022/03/04 13:31:46;;;;;;;7.00;3.50;;;;;;;;;;4957174;28;20306;-54
2022/03/04 13:34:28;;;;;;;9.00;3.50;;;;;;;;;;4957607;29;20712;-56
2022/03/04 13:36:58;;;;;;;9.07;3.70;;;;;;;;;;4957050;28;20695;-52
2022/03/04 13:39:31;;;;;;;8.60;4.43;;;;;;;;;;4957128;29;20684;-54
2022/03/04 13:42:16;;;;;;;5.60;3.10;;;;;;;;;;4956759;28;20227;-57
2022/03/04 13:45:00;;;;;;;7.43;3.90;;;;;;;;;;4957142;29;20257;-53
2022/03/04 13:47:36;;;;;;;7.63;3.63;;;;;;;;;;4980049;28;20233;-54
2022/03/04 13:50:10;;;;;;;4.20;2.90;;;;;;;;;;5009279;28;20221;-62
2022/03/04 13:52:58;;;;;;;6.20;3.23;;;;;;;;;;5015223;28;20228;-59
2022/03/04 13:55:34;;;;;;;6.17;3.13;;;;;;;;;;5014901;28;20283;-60
2022/03/04 13:58:11;;;;;;;7.23;3.80;;;;;;;;;;5016168;28;20217;-59
2022/03/04 14:00:40;;;;;;;7.47;3.47;;;;;;;;;;5014605;28;20240;-61
2022/03/04 14:03:09;;;;;;;3.93;2.93;;;;;;;;;;5014905;28;20217;-54
2022/03/04 14:05:39;;;;;;;8.10;3.63;;;;;;;;;;5014631;28;20689;-54
2022/03/04 14:08:11;;;;;;;10.13;4.63;;;;;;;;;;5014731;28;20225;-60
2022/03/04 14:10:40;;;;;;;13.27;5.83;;;;;;;;;;5015049;28;20264;-58
2022/03/04 14:13:10;;;;;;;8.50;4.20;;;;;;;;;;5015625;28;20308;-56
2022/03/04 14:15:40;;;;;;;9.67;5.00;;;;;;;;;;5015471;28;20217;-57
2022/03/04 14:18:09;;;;;;;8.23;4.40;;;;;;;;;;5015592;28;20568;-60
2022/03/04 14:20:38;;;;;;;9.27;4.73;;;;;;;;;;5015304;28;20690;-60
2022/03/04 14:23:06;;;;;;;18.30;6.17;;;;;;;;;;5015145;28;20225;-61
2022/03/04 14:25:34;;;;;;;14.00;5.63;;;;;;;;;;5015359;28;20225;-61
2022/03/04 14:28:02;;;;;;;23.33;9.60;;;;;;;;;;5014986;28;20291;-60
2022/03/04 14:30:32;;;;;;;14.73;6.27;;;;;;;;;;5012996;28;20271;-60
2022/03/04 14:33:01;;;;;;;13.27;6.93;;;;;;;;;;5014316;28;20225;-59
2022/03/04 14:35:31;;;;;;;45.90;15.70;;;;;;;;;;5015252;28;20252;-58
2022/03/04 14:37:58;;;;;;;29.47;11.50;;;;;;;;;;5015010;28;20217;-58